sensor_id;sensor_type;location;lat;lon;timestamp;P1;durP1;ratioP1;P2;durP2;ratioP2
26060;SDS011;36331;51.378;0.018;2023-04-03T00:00:06;3.83;;;1.35;;
26060;SDS011;36331;51.378;0.018;2023-04-03T00:02:35;3.28;;;1.38;;
26060;SDS011;36331;51.378;0.018;2023-04-03T00:05:05;3.65;;;2.33;;
26060;SDS011;36331;51.378;0.018;2023-04-03T00:07:35;5.07;;;1.33;;
26060;SDS011;36331;51.378;0.018;2023-04-03T00:10:07;11.32;;;1.52;;
26060;SDS011;36331;51.378;0.018;2023-04-03T00:12:39;8.02;;;1.48;;
26060;SDS011;36331;51.378;0.018;2023-04-03T00:15:10;3.20;;;1.02;;
26060;SDS011;36331;51.378;0.018;2023-04-03T00:17:40;5.80;;;1.05;;
26060;SDS011;36331;51.378;0.018;2023-04-03T00:20:10;6.07;;;1.75;;
26060;SDS011;36331;51.378;0.018;2023-04-03T00:22:39;3.15;;;1.42;;
26060;SDS011;36331;51.378;0.018;2023-04-03T00:25:08;2.83;;;1.52;;
26060;SDS011;36331;51.378;0.018;2023-04-03T00:27:38;4.95;;;1.42;;
26060;SDS011;36331;51.378;0.018;2023-04-03T00:30:16;5.88;;;1.50;;
26060;SDS011;36331;51.378;0.018;2023-04-03T00:32:48;4.65;;;1.10;;
26060;SDS011;36331;51.378;0.018;2023-04-03T00:35:18;3.92;;;1.30;;
26060;SDS011;36331;51.378;0.018;2023-04-03T00:37:47;11.90;;;1.85;;
26060;SDS011;36331;51.378;0.018;2023-04-03T00:40:17;3.35;;;1.13;;
26060;SDS011;36331;51.378;0.018;2023-04-03T00:42:48;6.63;;;1.55;;
26060;SDS011;36331;51.378;0.018;2023-04-03T00:48:10;10.80;;;1.55;;
26060;SDS011;36331;51.378;0.018;2023-04-03T00:50:40;11.95;;;4.07;;
26060;SDS011;36331;51.378;0.018;2023-04-03T00:53:11;5.70;;;1.20;;
26060;SDS011;36331;51.378;0.018;2023-04-03T00:55:42;4.70;;;1.60;;
26060;SDS011;36331;51.378;0.018;2023-04-03T00:58:13;4.97;;;1.17;;
26060;SDS011;36331;51.378;0.018;2023-04-03T01:00:44;7.22;;;1.23;;
26060;SDS011;36331;51.378;0.018;2023-04-03T01:03:18;4.13;;;1.42;;
26060;SDS011;36331;51.378;0.018;2023-04-03T01:05:50;8.95;;;1.40;;
26060;SDS011;36331;51.378;0.018;2023-04-03T01:08:19;4.80;;;1.25;;
26060;SDS011;36331;51.378;0.018;2023-04-03T01:10:48;5.45;;;1.42;;
26060;SDS011;36331;51.378;0.018;2023-04-03T01:13:21;3.60;;;1.17;;
26060;SDS011;36331;51.378;0.018;2023-04-03T01:15:51;5.10;;;2.22;;
26060;SDS011;36331;51.378;0.018;2023-04-03T01:18:21;6.28;;;1.63;;
26060;SDS011;36331;51.378;0.018;2023-04-03T01:21:04;9.45;;;3.25;;
26060;SDS011;36331;51.378;0.018;2023-04-03T01:23:41;9.50;;;1.50;;
26060;SDS011;36331;51.378;0.018;2023-04-03T01:26:13;4.95;;;2.35;;
26060;SDS011;36331;51.378;0.018;2023-04-03T01:28:43;4.07;;;2.05;;
26060;SDS011;36331;51.378;0.018;2023-04-03T01:31:15;3.92;;;1.27;;
26060;SDS011;36331;51.378;0.018;2023-04-03T01:33:49;3.38;;;1.83;;
26060;SDS011;36331;51.378;0.018;2023-04-03T01:36:19;5.10;;;1.48;;
26060;SDS011;36331;51.378;0.018;2023-04-03T01:38:49;10.27;;;1.75;;
26060;SDS011;36331;51.378;0.018;2023-04-03T01:41:19;6.35;;;2.55;;
26060;SDS011;36331;51.378;0.018;2023-04-03T01:43:50;7.47;;;1.95;;
26060;SDS011;36331;51.378;0.018;2023-04-03T01:46:20;26.17;;;3.58;;
26060;SDS011;36331;51.378;0.018;2023-04-03T01:48:51;6.85;;;1.33;;
26060;SDS011;36331;51.378;0.018;2023-04-03T01:51:20;2.83;;;1.63;;
26060;SDS011;36331;51.378;0.018;2023-04-03T01:53:50;7.43;;;1.40;;
26060;SDS011;36331;51.378;0.018;2023-04-03T01:56:20;5.00;;;1.83;;
26060;SDS011;36331;51.378;0.018;2023-04-03T01:58:49;9.27;;;2.45;;
26060;SDS011;36331;51.378;0.018;2023-04-03T02:01:19;6.72;;;1.75;;
26060;SDS011;36331;51.378;0.018;2023-04-03T02:03:48;5.78;;;1.42;;
26060;SDS011;36331;51.378;0.018;2023-04-03T02:06:19;6.88;;;1.38;;
26060;SDS011;36331;51.378;0.018;2023-04-03T02:08:50;7.22;;;3.47;;
26060;SDS011;36331;51.378;0.018;2023-04-03T02:11:20;5.60;;;2.00;;
26060;SDS011;36331;51.378;0.018;2023-04-03T02:13:49;3.15;;;1.15;;
26060;SDS011;36331;51.378;0.018;2023-04-03T02:16:19;4.95;;;2.08;;
26060;SDS011;36331;51.378;0.018;2023-04-03T02:18:49;10.27;;;1.33;;
26060;SDS011;36331;51.378;0.018;2023-04-03T02:21:20;12.07;;;3.10;;
26060;SDS011;36331;51.378;0.018;2023-04-03T02:23:50;8.00;;;1.00;;
26060;SDS011;36331;51.378;0.018;2023-04-03T02:26:21;4.68;;;1.52;;
26060;SDS011;36331;51.378;0.018;2023-04-03T02:28:50;3.83;;;1.33;;
26060;SDS011;36331;51.378;0.018;2023-04-03T02:31:19;3.67;;;1.33;;
26060;SDS011;36331;51.378;0.018;2023-04-03T02:33:49;6.03;;;1.35;;
26060;SDS011;36331;51.378;0.018;2023-04-03T02:36:18;6.18;;;1.30;;
26060;SDS011;36331;51.378;0.018;2023-04-03T02:38:54;4.70;;;1.50;;
26060;SDS011;36331;51.378;0.018;2023-04-03T02:41:23;9.45;;;1.65;;
26060;SDS011;36331;51.378;0.018;2023-04-03T02:43:59;4.70;;;1.33;;
26060;SDS011;36331;51.378;0.018;2023-04-03T02:46:28;3.75;;;1.65;;
26060;SDS011;36331;51.378;0.018;2023-04-03T02:48:57;3.00;;;1.38;;
26060;SDS011;36331;51.378;0.018;2023-04-03T02:51:26;8.68;;;1.50;;
26060;SDS011;36331;51.378;0.018;2023-04-03T02:53:57;7.70;;;1.85;;
26060;SDS011;36331;51.378;0.018;2023-04-03T02:56:30;4.47;;;1.73;;
26060;SDS011;36331;51.378;0.018;2023-04-03T02:58:59;4.35;;;2.05;;
26060;SDS011;36331;51.378;0.018;2023-04-03T03:01:29;4.63;;;1.70;;
26060;SDS011;36331;51.378;0.018;2023-04-03T03:03:59;3.80;;;1.77;;
26060;SDS011;36331;51.378;0.018;2023-04-03T03:06:28;2.22;;;1.65;;
26060;SDS011;36331;51.378;0.018;2023-04-03T03:08:59;6.07;;;1.55;;
26060;SDS011;36331;51.378;0.018;2023-04-03T03:11:28;3.30;;;1.40;;
26060;SDS011;36331;51.378;0.018;2023-04-03T03:13:57;2.85;;;1.30;;
26060;SDS011;36331;51.378;0.018;2023-04-03T03:16:27;7.78;;;1.20;;
26060;SDS011;36331;51.378;0.018;2023-04-03T03:18:56;3.72;;;1.60;;
26060;SDS011;36331;51.378;0.018;2023-04-03T03:21:26;5.35;;;2.00;;
26060;SDS011;36331;51.378;0.018;2023-04-03T03:23:55;7.43;;;1.88;;
26060;SDS011;36331;51.378;0.018;2023-04-03T03:26:26;7.45;;;1.55;;
26060;SDS011;36331;51.378;0.018;2023-04-03T03:28:55;5.63;;;1.40;;
26060;SDS011;36331;51.378;0.018;2023-04-03T03:31:26;5.82;;;1.83;;
26060;SDS011;36331;51.378;0.018;2023-04-03T03:33:55;4.13;;;1.80;;
26060;SDS011;36331;51.378;0.018;2023-04-03T03:36:24;7.60;;;2.20;;
26060;SDS011;36331;51.378;0.018;2023-04-03T03:38:53;6.80;;;1.67;;
26060;SDS011;36331;51.378;0.018;2023-04-03T03:41:23;7.20;;;1.30;;
26060;SDS011;36331;51.378;0.018;2023-04-03T03:43:54;5.85;;;1.77;;
26060;SDS011;36331;51.378;0.018;2023-04-03T03:46:28;10.27;;;1.50;;
26060;SDS011;36331;51.378;0.018;2023-04-03T03:48:57;9.30;;;1.80;;
26060;SDS011;36331;51.378;0.018;2023-04-03T03:51:28;5.35;;;1.73;;
26060;SDS011;36331;51.378;0.018;2023-04-03T03:53:58;2.70;;;1.80;;
26060;SDS011;36331;51.378;0.018;2023-04-03T03:56:29;6.00;;;1.52;;
26060;SDS011;36331;51.378;0.018;2023-04-03T03:58:59;6.25;;;1.83;;
26060;SDS011;36331;51.378;0.018;2023-04-03T04:01:30;6.15;;;2.25;;
26060;SDS011;36331;51.378;0.018;2023-04-03T04:04:00;5.05;;;1.90;;
26060;SDS011;36331;51.378;0.018;2023-04-03T04:06:31;6.83;;;1.77;;
26060;SDS011;36331;51.378;0.018;2023-04-03T04:09:04;2.17;;;1.38;;
26060;SDS011;36331;51.378;0.018;2023-04-03T04:11:34;4.93;;;1.75;;
26060;SDS011;36331;51.378;0.018;2023-04-03T04:14:05;6.15;;;2.42;;
26060;SDS011;36331;51.378;0.018;2023-04-03T04:16:37;6.18;;;2.25;;
26060;SDS011;36331;51.378;0.018;2023-04-03T04:19:13;5.47;;;2.95;;
26060;SDS011;36331;51.378;0.018;2023-04-03T04:21:43;3.08;;;1.75;;
26060;SDS011;36331;51.378;0.018;2023-04-03T04:24:13;2.75;;;1.25;;
26060;SDS011;36331;51.378;0.018;2023-04-03T04:26:43;5.45;;;1.63;;
26060;SDS011;36331;51.378;0.018;2023-04-03T04:29:17;4.80;;;1.30;;
26060;SDS011;36331;51.378;0.018;2023-04-03T04:31:49;3.08;;;1.70;;
26060;SDS011;36331;51.378;0.018;2023-04-03T04:34:18;5.82;;;2.03;;
26060;SDS011;36331;51.378;0.018;2023-04-03T04:36:47;4.72;;;1.65;;
26060;SDS011;36331;51.378;0.018;2023-04-03T04:39:16;3.33;;;1.20;;
26060;SDS011;36331;51.378;0.018;2023-04-03T04:41:46;4.07;;;1.40;;
26060;SDS011;36331;51.378;0.018;2023-04-03T04:44:17;9.82;;;2.38;;
26060;SDS011;36331;51.378;0.018;2023-04-03T04:46:47;5.55;;;1.70;;
26060;SDS011;36331;51.378;0.018;2023-04-03T04:49:16;3.45;;;1.60;;
26060;SDS011;36331;51.378;0.018;2023-04-03T04:51:46;7.70;;;2.00;;
26060;SDS011;36331;51.378;0.018;2023-04-03T04:54:23;6.63;;;1.75;;
26060;SDS011;36331;51.378;0.018;2023-04-03T04:56:52;3.38;;;1.58;;
26060;SDS011;36331;51.378;0.018;2023-04-03T04:59:23;5.53;;;1.58;;
26060;SDS011;36331;51.378;0.018;2023-04-03T05:01:55;6.63;;;1.60;;
26060;SDS011;36331;51.378;0.018;2023-04-03T05:04:25;4.70;;;1.75;;
26060;SDS011;36331;51.378;0.018;2023-04-03T05:07:02;5.47;;;2.50;;
26060;SDS011;36331;51.378;0.018;2023-04-03T05:09:35;8.38;;;1.90;;
26060;SDS011;36331;51.378;0.018;2023-04-03T05:12:05;9.02;;;2.65;;
26060;SDS011;36331;51.378;0.018;2023-04-03T05:14:41;2.10;;;1.25;;
26060;SDS011;36331;51.378;0.018;2023-04-03T05:17:11;3.88;;;2.20;;
26060;SDS011;36331;51.378;0.018;2023-04-03T05:19:45;7.85;;;1.63;;
26060;SDS011;36331;51.378;0.018;2023-04-03T05:22:14;3.30;;;2.00;;
26060;SDS011;36331;51.378;0.018;2023-04-03T05:24:44;3.10;;;1.50;;
26060;SDS011;36331;51.378;0.018;2023-04-03T05:27:15;4.40;;;1.50;;
26060;SDS011;36331;51.378;0.018;2023-04-03T05:29:52;8.25;;;1.70;;
26060;SDS011;36331;51.378;0.018;2023-04-03T05:32:22;3.47;;;2.00;;
26060;SDS011;36331;51.378;0.018;2023-04-03T05:35:00;3.78;;;1.73;;
26060;SDS011;36331;51.378;0.018;2023-04-03T05:37:32;9.27;;;3.47;;
26060;SDS011;36331;51.378;0.018;2023-04-03T05:40:06;11.77;;;1.80;;
26060;SDS011;36331;51.378;0.018;2023-04-03T05:42:40;6.57;;;2.13;;
26060;SDS011;36331;51.378;0.018;2023-04-03T05:45:11;7.30;;;1.50;;
26060;SDS011;36331;51.378;0.018;2023-04-03T05:47:40;11.93;;;2.97;;
26060;SDS011;36331;51.378;0.018;2023-04-03T05:50:10;5.10;;;2.03;;
26060;SDS011;36331;51.378;0.018;2023-04-03T05:52:41;3.38;;;1.73;;
26060;SDS011;36331;51.378;0.018;2023-04-03T05:55:13;6.07;;;1.70;;
26060;SDS011;36331;51.378;0.018;2023-04-03T05:57:42;9.27;;;2.53;;
26060;SDS011;36331;51.378;0.018;2023-04-03T06:00:14;6.30;;;3.78;;
26060;SDS011;36331;51.378;0.018;2023-04-03T06:02:52;8.05;;;2.55;;
26060;SDS011;36331;51.378;0.018;2023-04-03T06:07:53;4.80;;;1.55;;
26060;SDS011;36331;51.378;0.018;2023-04-03T06:10:22;5.80;;;3.03;;
26060;SDS011;36331;51.378;0.018;2023-04-03T06:12:51;5.00;;;1.70;;
26060;SDS011;36331;51.378;0.018;2023-04-03T06:15:22;8.23;;;2.25;;
26060;SDS011;36331;51.378;0.018;2023-04-03T06:17:51;7.03;;;1.98;;
26060;SDS011;36331;51.378;0.018;2023-04-03T06:20:21;8.57;;;2.47;;
26060;SDS011;36331;51.378;0.018;2023-04-03T06:22:50;5.18;;;1.90;;
26060;SDS011;36331;51.378;0.018;2023-04-03T06:25:19;7.07;;;2.38;;
26060;SDS011;36331;51.378;0.018;2023-04-03T06:27:48;3.40;;;2.17;;
26060;SDS011;36331;51.378;0.018;2023-04-03T06:30:17;7.25;;;2.10;;
26060;SDS011;36331;51.378;0.018;2023-04-03T06:32:47;4.63;;;1.90;;
26060;SDS011;36331;51.378;0.018;2023-04-03T06:35:17;3.67;;;1.67;;
26060;SDS011;36331;51.378;0.018;2023-04-03T06:37:47;9.30;;;2.03;;
26060;SDS011;36331;51.378;0.018;2023-04-03T06:40:18;7.18;;;2.05;;
26060;SDS011;36331;51.378;0.018;2023-04-03T06:42:48;5.72;;;2.30;;
26060;SDS011;36331;51.378;0.018;2023-04-03T06:45:18;20.55;;;2.55;;
26060;SDS011;36331;51.378;0.018;2023-04-03T06:47:50;4.53;;;2.83;;
26060;SDS011;36331;51.378;0.018;2023-04-03T06:50:19;4.68;;;2.30;;
26060;SDS011;36331;51.378;0.018;2023-04-03T06:52:49;9.05;;;2.50;;
26060;SDS011;36331;51.378;0.018;2023-04-03T06:55:18;6.15;;;2.58;;
26060;SDS011;36331;51.378;0.018;2023-04-03T06:57:47;4.07;;;1.77;;
26060;SDS011;36331;51.378;0.018;2023-04-03T07:00:17;4.85;;;1.77;;
26060;SDS011;36331;51.378;0.018;2023-04-03T07:02:46;4.55;;;1.83;;
26060;SDS011;36331;51.378;0.018;2023-04-03T07:05:17;8.00;;;2.20;;
26060;SDS011;36331;51.378;0.018;2023-04-03T07:07:46;8.63;;;1.95;;
26060;SDS011;36331;51.378;0.018;2023-04-03T07:10:16;5.45;;;2.10;;
26060;SDS011;36331;51.378;0.018;2023-04-03T07:12:46;5.50;;;1.80;;
26060;SDS011;36331;51.378;0.018;2023-04-03T07:15:15;5.35;;;2.15;;
26060;SDS011;36331;51.378;0.018;2023-04-03T07:17:44;5.13;;;2.03;;
26060;SDS011;36331;51.378;0.018;2023-04-03T07:20:13;4.38;;;1.63;;
26060;SDS011;36331;51.378;0.018;2023-04-03T07:22:44;6.65;;;2.10;;
26060;SDS011;36331;51.378;0.018;2023-04-03T07:25:13;4.70;;;2.35;;
26060;SDS011;36331;51.378;0.018;2023-04-03T07:27:43;4.50;;;2.28;;
26060;SDS011;36331;51.378;0.018;2023-04-03T07:30:12;10.95;;;2.78;;
26060;SDS011;36331;51.378;0.018;2023-04-03T07:32:41;4.78;;;2.47;;
26060;SDS011;36331;51.378;0.018;2023-04-03T07:35:13;4.38;;;2.03;;
26060;SDS011;36331;51.378;0.018;2023-04-03T07:37:43;9.23;;;2.63;;
26060;SDS011;36331;51.378;0.018;2023-04-03T07:40:13;10.55;;;2.05;;
26060;SDS011;36331;51.378;0.018;2023-04-03T07:42:43;6.47;;;2.55;;
26060;SDS011;36331;51.378;0.018;2023-04-03T07:45:13;4.78;;;3.08;;
26060;SDS011;36331;51.378;0.018;2023-04-03T07:47:44;7.05;;;1.77;;
26060;SDS011;36331;51.378;0.018;2023-04-03T07:50:13;5.85;;;1.90;;
26060;SDS011;36331;51.378;0.018;2023-04-03T07:52:44;5.82;;;2.53;;
26060;SDS011;36331;51.378;0.018;2023-04-03T07:55:13;5.13;;;2.40;;
26060;SDS011;36331;51.378;0.018;2023-04-03T07:57:43;10.23;;;3.25;;
26060;SDS011;36331;51.378;0.018;2023-04-03T08:00:12;6.68;;;2.85;;
26060;SDS011;36331;51.378;0.018;2023-04-03T08:02:41;6.15;;;2.88;;
26060;SDS011;36331;51.378;0.018;2023-04-03T08:05:11;7.90;;;3.63;;
26060;SDS011;36331;51.378;0.018;2023-04-03T08:07:40;8.93;;;2.92;;
26060;SDS011;36331;51.378;0.018;2023-04-03T08:10:11;5.90;;;2.78;;
26060;SDS011;36331;51.378;0.018;2023-04-03T08:12:40;7.15;;;3.47;;
26060;SDS011;36331;51.378;0.018;2023-04-03T08:15:09;10.20;;;2.60;;
26060;SDS011;36331;51.378;0.018;2023-04-03T08:17:38;5.38;;;2.90;;
26060;SDS011;36331;51.378;0.018;2023-04-03T08:20:09;8.93;;;2.63;;
26060;SDS011;36331;51.378;0.018;2023-04-03T08:22:38;7.03;;;2.97;;
26060;SDS011;36331;51.378;0.018;2023-04-03T08:25:08;5.22;;;2.53;;
26060;SDS011;36331;51.378;0.018;2023-04-03T08:27:39;6.03;;;2.88;;
26060;SDS011;36331;51.378;0.018;2023-04-03T08:30:09;11.00;;;3.17;;
26060;SDS011;36331;51.378;0.018;2023-04-03T08:32:38;10.60;;;3.70;;
26060;SDS011;36331;51.378;0.018;2023-04-03T08:35:09;8.88;;;3.67;;
26060;SDS011;36331;51.378;0.018;2023-04-03T08:37:39;11.52;;;3.40;;
26060;SDS011;36331;51.378;0.018;2023-04-03T08:40:12;6.22;;;3.33;;
26060;SDS011;36331;51.378;0.018;2023-04-03T08:42:45;8.50;;;3.03;;
26060;SDS011;36331;51.378;0.018;2023-04-03T08:45:18;10.60;;;3.42;;
26060;SDS011;36331;51.378;0.018;2023-04-03T08:47:52;9.57;;;4.38;;
26060;SDS011;36331;51.378;0.018;2023-04-03T08:50:26;8.10;;;2.92;;
26060;SDS011;36331;51.378;0.018;2023-04-03T08:52:58;7.80;;;3.28;;
26060;SDS011;36331;51.378;0.018;2023-04-03T08:55:29;6.40;;;3.95;;
26060;SDS011;36331;51.378;0.018;2023-04-03T08:58:02;12.10;;;4.50;;
26060;SDS011;36331;51.378;0.018;2023-04-03T09:00:34;7.35;;;3.60;;
26060;SDS011;36331;51.378;0.018;2023-04-03T09:03:03;9.13;;;3.80;;
26060;SDS011;36331;51.378;0.018;2023-04-03T09:05:39;9.57;;;3.65;;
26060;SDS011;36331;51.378;0.018;2023-04-03T09:08:12;7.10;;;3.90;;
26060;SDS011;36331;51.378;0.018;2023-04-03T09:10:43;11.60;;;4.80;;
26060;SDS011;36331;51.378;0.018;2023-04-03T09:13:17;15.65;;;4.80;;
26060;SDS011;36331;51.378;0.018;2023-04-03T09:15:49;7.32;;;3.65;;
26060;SDS011;36331;51.378;0.018;2023-04-03T09:18:33;9.60;;;4.53;;
26060;SDS011;36331;51.378;0.018;2023-04-03T09:21:08;9.68;;;4.88;;
26060;SDS011;36331;51.378;0.018;2023-04-03T09:23:43;6.80;;;4.43;;
26060;SDS011;36331;51.378;0.018;2023-04-03T09:26:18;8.55;;;4.13;;
26060;SDS011;36331;51.378;0.018;2023-04-03T09:28:49;11.10;;;4.28;;
26060;SDS011;36331;51.378;0.018;2023-04-03T09:31:20;10.00;;;4.13;;
26060;SDS011;36331;51.378;0.018;2023-04-03T09:33:53;6.95;;;4.22;;
26060;SDS011;36331;51.378;0.018;2023-04-03T09:36:41;7.63;;;4.18;;
26060;SDS011;36331;51.378;0.018;2023-04-03T09:39:12;8.15;;;3.80;;
26060;SDS011;36331;51.378;0.018;2023-04-03T09:41:42;10.00;;;4.18;;
26060;SDS011;36331;51.378;0.018;2023-04-03T09:44:22;10.13;;;4.53;;
26060;SDS011;36331;51.378;0.018;2023-04-03T09:46:51;10.60;;;4.93;;
26060;SDS011;36331;51.378;0.018;2023-04-03T09:49:20;9.73;;;4.25;;
26060;SDS011;36331;51.378;0.018;2023-04-03T09:51:50;12.13;;;4.35;;
26060;SDS011;36331;51.378;0.018;2023-04-03T09:54:25;3.65;;;3.25;;
26060;SDS011;36331;51.378;0.018;2023-04-03T09:56:55;9.55;;;4.57;;
26060;SDS011;36331;51.378;0.018;2023-04-03T09:59:26;7.68;;;4.25;;
26060;SDS011;36331;51.378;0.018;2023-04-03T10:01:57;6.75;;;3.72;;
26060;SDS011;36331;51.378;0.018;2023-04-03T10:04:36;10.88;;;4.72;;
26060;SDS011;36331;51.378;0.018;2023-04-03T10:09:54;6.88;;;3.97;;
26060;SDS011;36331;51.378;0.018;2023-04-03T10:12:24;5.53;;;3.83;;
26060;SDS011;36331;51.378;0.018;2023-04-03T10:14:55;5.28;;;3.53;;
26060;SDS011;36331;51.378;0.018;2023-04-03T10:17:28;8.68;;;5.07;;
26060;SDS011;36331;51.378;0.018;2023-04-03T10:20:02;4.63;;;3.13;;
26060;SDS011;36331;51.378;0.018;2023-04-03T10:22:32;7.70;;;4.15;;
26060;SDS011;36331;51.378;0.018;2023-04-03T10:25:10;4.88;;;3.30;;
26060;SDS011;36331;51.378;0.018;2023-04-03T10:27:44;6.88;;;3.45;;
26060;SDS011;36331;51.378;0.018;2023-04-03T10:30:25;5.13;;;2.60;;
26060;SDS011;36331;51.378;0.018;2023-04-03T10:33:07;7.03;;;3.40;;
26060;SDS011;36331;51.378;0.018;2023-04-03T10:35:41;5.75;;;3.55;;
26060;SDS011;36331;51.378;0.018;2023-04-03T10:38:14;6.07;;;3.42;;
26060;SDS011;36331;51.378;0.018;2023-04-03T10:40:47;4.40;;;3.50;;
26060;SDS011;36331;51.378;0.018;2023-04-03T10:43:17;5.85;;;2.90;;
26060;SDS011;36331;51.378;0.018;2023-04-03T10:45:57;3.20;;;2.05;;
26060;SDS011;36331;51.378;0.018;2023-04-03T10:48:33;6.22;;;2.33;;
26060;SDS011;36331;51.378;0.018;2023-04-03T10:51:06;4.18;;;3.13;;
26060;SDS011;36331;51.378;0.018;2023-04-03T10:53:41;4.82;;;3.15;;
26060;SDS011;36331;51.378;0.018;2023-04-03T10:56:14;3.97;;;2.30;;
26060;SDS011;36331;51.378;0.018;2023-04-03T10:58:45;8.30;;;3.50;;
26060;SDS011;36331;51.378;0.018;2023-04-03T11:01:19;6.18;;;2.75;;
26060;SDS011;36331;51.378;0.018;2023-04-03T11:03:50;4.53;;;2.75;;
26060;SDS011;36331;51.378;0.018;2023-04-03T11:06:22;3.28;;;2.10;;
26060;SDS011;36331;51.378;0.018;2023-04-03T11:08:53;6.37;;;3.10;;
26060;SDS011;36331;51.378;0.018;2023-04-03T11:11:26;5.15;;;2.70;;
26060;SDS011;36331;51.378;0.018;2023-04-03T11:13:57;4.93;;;2.38;;
26060;SDS011;36331;51.378;0.018;2023-04-03T11:19:01;4.80;;;2.65;;
26060;SDS011;36331;51.378;0.018;2023-04-03T11:21:33;2.58;;;1.92;;
26060;SDS011;36331;51.378;0.018;2023-04-03T11:24:04;4.03;;;2.53;;
26060;SDS011;36331;51.378;0.018;2023-04-03T11:26:36;4.05;;;2.25;;
26060;SDS011;36331;51.378;0.018;2023-04-03T11:29:09;2.30;;;1.63;;
26060;SDS011;36331;51.378;0.018;2023-04-03T11:32:07;3.83;;;2.50;;
26060;SDS011;36331;51.378;0.018;2023-04-03T11:34:40;3.50;;;1.42;;
26060;SDS011;36331;51.378;0.018;2023-04-03T11:39:39;2.15;;;1.70;;
26060;SDS011;36331;51.378;0.018;2023-04-03T11:42:13;5.30;;;2.15;;
26060;SDS011;36331;51.378;0.018;2023-04-03T11:44:44;3.47;;;2.20;;
26060;SDS011;36331;51.378;0.018;2023-04-03T11:47:43;4.03;;;1.80;;
26060;SDS011;36331;51.378;0.018;2023-04-03T11:50:05;3.22;;;2.13;;
26060;SDS011;36331;51.378;0.018;2023-04-03T11:52:57;3.30;;;2.63;;
26060;SDS011;36331;51.378;0.018;2023-04-03T11:55:42;6.25;;;2.33;;
26060;SDS011;36331;51.378;0.018;2023-04-03T11:58:13;4.05;;;2.42;;
26060;SDS011;36331;51.378;0.018;2023-04-03T12:00:46;2.95;;;2.58;;
26060;SDS011;36331;51.378;0.018;2023-04-03T12:03:29;4.80;;;2.22;;
26060;SDS011;36331;51.378;0.018;2023-04-03T12:08:45;6.47;;;2.13;;
26060;SDS011;36331;51.378;0.018;2023-04-03T12:11:15;4.40;;;2.70;;
26060;SDS011;36331;51.378;0.018;2023-04-03T12:16:30;2.95;;;2.25;;
26060;SDS011;36331;51.378;0.018;2023-04-03T12:19:01;4.72;;;2.92;;
26060;SDS011;36331;51.378;0.018;2023-04-03T12:24:27;3.55;;;2.50;;
26060;SDS011;36331;51.378;0.018;2023-04-03T12:27:07;3.00;;;2.60;;
26060;SDS011;36331;51.378;0.018;2023-04-03T12:29:56;3.85;;;2.67;;
26060;SDS011;36331;51.378;0.018;2023-04-03T12:32:36;3.38;;;2.88;;
26060;SDS011;36331;51.378;0.018;2023-04-03T12:35:14;4.38;;;2.53;;
26060;SDS011;36331;51.378;0.018;2023-04-03T12:38:12;7.32;;;3.22;;
26060;SDS011;36331;51.378;0.018;2023-04-03T12:40:47;3.22;;;2.15;;
26060;SDS011;36331;51.378;0.018;2023-04-03T12:43:28;4.35;;;2.50;;
26060;SDS011;36331;51.378;0.018;2023-04-03T12:46:03;4.80;;;2.80;;
26060;SDS011;36331;51.378;0.018;2023-04-03T12:48:34;2.58;;;1.98;;
26060;SDS011;36331;51.378;0.018;2023-04-03T12:51:06;3.97;;;2.05;;
26060;SDS011;36331;51.378;0.018;2023-04-03T12:53:36;2.53;;;1.55;;
26060;SDS011;36331;51.378;0.018;2023-04-03T12:56:19;3.22;;;2.38;;
26060;SDS011;36331;51.378;0.018;2023-04-03T12:58:50;3.17;;;2.00;;
26060;SDS011;36331;51.378;0.018;2023-04-03T13:01:20;4.28;;;2.20;;
26060;SDS011;36331;51.378;0.018;2023-04-03T13:03:51;2.92;;;2.70;;
26060;SDS011;36331;51.378;0.018;2023-04-03T13:06:21;3.30;;;2.03;;
26060;SDS011;36331;51.378;0.018;2023-04-03T13:08:52;4.30;;;2.05;;
26060;SDS011;36331;51.378;0.018;2023-04-03T13:11:23;4.32;;;2.17;;
26060;SDS011;36331;51.378;0.018;2023-04-03T13:13:54;5.57;;;1.50;;
26060;SDS011;36331;51.378;0.018;2023-04-03T13:16:23;2.88;;;1.90;;
26060;SDS011;36331;51.378;0.018;2023-04-03T13:18:53;2.97;;;1.38;;
26060;SDS011;36331;51.378;0.018;2023-04-03T13:21:24;2.60;;;1.98;;
26060;SDS011;36331;51.378;0.018;2023-04-03T13:23:54;4.70;;;2.22;;
26060;SDS011;36331;51.378;0.018;2023-04-03T13:26:42;4.70;;;1.48;;
26060;SDS011;36331;51.378;0.018;2023-04-03T13:29:19;5.30;;;1.70;;
26060;SDS011;36331;51.378;0.018;2023-04-03T13:31:56;1.90;;;1.30;;
26060;SDS011;36331;51.378;0.018;2023-04-03T13:34:27;1.67;;;1.13;;
26060;SDS011;36331;51.378;0.018;2023-04-03T13:36:59;1.90;;;1.60;;
26060;SDS011;36331;51.378;0.018;2023-04-03T13:39:30;1.33;;;1.23;;
26060;SDS011;36331;51.378;0.018;2023-04-03T13:42:14;1.40;;;1.30;;
26060;SDS011;36331;51.378;0.018;2023-04-03T13:44:44;4.45;;;1.80;;
26060;SDS011;36331;51.378;0.018;2023-04-03T13:47:15;6.45;;;2.08;;
26060;SDS011;36331;51.378;0.018;2023-04-03T13:49:46;4.18;;;1.73;;
26060;SDS011;36331;51.378;0.018;2023-04-03T13:52:28;3.17;;;1.83;;
26060;SDS011;36331;51.378;0.018;2023-04-03T13:55:01;7.50;;;1.42;;
26060;SDS011;36331;51.378;0.018;2023-04-03T13:57:37;11.73;;;1.70;;
26060;SDS011;36331;51.378;0.018;2023-04-03T14:00:22;3.80;;;1.97;;
26060;SDS011;36331;51.378;0.018;2023-04-03T14:02:56;4.38;;;2.40;;
26060;SDS011;36331;51.378;0.018;2023-04-03T14:05:25;3.92;;;1.90;;
26060;SDS011;36331;51.378;0.018;2023-04-03T14:07:54;2.47;;;1.80;;
26060;SDS011;36331;51.378;0.018;2023-04-03T14:10:24;3.50;;;1.73;;
26060;SDS011;36331;51.378;0.018;2023-04-03T14:12:54;2.92;;;1.90;;
26060;SDS011;36331;51.378;0.018;2023-04-03T14:15:24;3.05;;;2.38;;
26060;SDS011;36331;51.378;0.018;2023-04-03T14:17:55;8.88;;;3.00;;
26060;SDS011;36331;51.378;0.018;2023-04-03T14:20:27;4.93;;;3.22;;
26060;SDS011;36331;51.378;0.018;2023-04-03T14:22:56;5.00;;;2.03;;
26060;SDS011;36331;51.378;0.018;2023-04-03T14:25:25;3.35;;;1.60;;
26060;SDS011;36331;51.378;0.018;2023-04-03T14:27:57;4.53;;;2.42;;
26060;SDS011;36331;51.378;0.018;2023-04-03T14:30:28;5.32;;;3.42;;
26060;SDS011;36331;51.378;0.018;2023-04-03T14:32:58;5.43;;;2.90;;
26060;SDS011;36331;51.378;0.018;2023-04-03T14:35:28;6.03;;;2.60;;
26060;SDS011;36331;51.378;0.018;2023-04-03T14:37:58;4.55;;;2.33;;
26060;SDS011;36331;51.378;0.018;2023-04-03T14:40:27;5.90;;;2.97;;
26060;SDS011;36331;51.378;0.018;2023-04-03T14:42:57;6.40;;;3.90;;
26060;SDS011;36331;51.378;0.018;2023-04-03T14:45:29;4.15;;;2.45;;
26060;SDS011;36331;51.378;0.018;2023-04-03T14:47:58;3.65;;;2.85;;
26060;SDS011;36331;51.378;0.018;2023-04-03T14:50:28;6.05;;;3.08;;
26060;SDS011;36331;51.378;0.018;2023-04-03T14:52:58;5.35;;;3.83;;
26060;SDS011;36331;51.378;0.018;2023-04-03T14:55:27;5.88;;;4.25;;
26060;SDS011;36331;51.378;0.018;2023-04-03T14:57:58;5.07;;;3.17;;
26060;SDS011;36331;51.378;0.018;2023-04-03T15:00:27;3.95;;;3.30;;
26060;SDS011;36331;51.378;0.018;2023-04-03T15:02:56;9.90;;;3.50;;
26060;SDS011;36331;51.378;0.018;2023-04-03T15:05:25;4.43;;;3.28;;
26060;SDS011;36331;51.378;0.018;2023-04-03T15:07:55;5.95;;;2.90;;
26060;SDS011;36331;51.378;0.018;2023-04-03T15:10:25;4.43;;;3.67;;
26060;SDS011;36331;51.378;0.018;2023-04-03T15:12:55;3.90;;;3.60;;
26060;SDS011;36331;51.378;0.018;2023-04-03T15:15:27;4.63;;;2.50;;
26060;SDS011;36331;51.378;0.018;2023-04-03T15:17:57;5.60;;;3.85;;
26060;SDS011;36331;51.378;0.018;2023-04-03T15:20:27;5.25;;;3.88;;
26060;SDS011;36331;51.378;0.018;2023-04-03T15:23:00;4.07;;;2.75;;
26060;SDS011;36331;51.378;0.018;2023-04-03T15:25:29;4.38;;;2.95;;
26060;SDS011;36331;51.378;0.018;2023-04-03T15:27:58;2.92;;;2.60;;
26060;SDS011;36331;51.378;0.018;2023-04-03T15:30:30;25.98;;;4.90;;
26060;SDS011;36331;51.378;0.018;2023-04-03T15:33:00;5.93;;;3.28;;